sensor_id;sensor_type;location;lat;lon;timestamp;P1;durP1;ratioP1;P2;durP2;ratioP2
52542;SDS011;38449;52.696;6.186;2022-08-19T00:00:34;6.70;;;5.68;;
52542;SDS011;38449;52.696;6.186;2022-08-19T00:03:01;10.90;;;6.35;;
52542;SDS011;38449;52.696;6.186;2022-08-19T00:05:27;7.88;;;6.88;;
52542;SDS011;38449;52.696;6.186;2022-08-19T00:07:53;11.10;;;6.70;;
52542;SDS011;38449;52.696;6.186;2022-08-19T00:10:19;10.60;;;7.30;;
52542;SDS011;38449;52.696;6.186;2022-08-19T00:12:46;9.85;;;7.05;;
52542;SDS011;38449;52.696;6.186;2022-08-19T00:15:13;9.20;;;7.15;;
52542;SDS011;38449;52.696;6.186;2022-08-19T00:17:42;9.98;;;6.43;;
52542;SDS011;38449;52.696;6.186;2022-08-19T00:20:09;8.25;;;6.93;;
52542;SDS011;38449;52.696;6.186;2022-08-19T00:22:37;10.38;;;7.88;;
52542;SDS011;38449;52.696;6.186;2022-08-19T00:25:04;10.18;;;7.82;;
52542;SDS011;38449;52.696;6.186;2022-08-19T00:27:31;9.07;;;7.25;;
52542;SDS011;38449;52.696;6.186;2022-08-19T00:29:57;9.93;;;7.30;;
52542;SDS011;38449;52.696;6.186;2022-08-19T00:32:23;9.98;;;7.43;;
52542;SDS011;38449;52.696;6.186;2022-08-19T00:34:50;8.70;;;7.15;;
52542;SDS011;38449;52.696;6.186;2022-08-19T00:37:18;9.57;;;7.97;;
52542;SDS011;38449;52.696;6.186;2022-08-19T00:39:45;9.20;;;7.35;;
52542;SDS011;38449;52.696;6.186;2022-08-19T00:42:10;8.68;;;7.55;;
52542;SDS011;38449;52.696;6.186;2022-08-19T00:44:38;9.70;;;7.68;;
52542;SDS011;38449;52.696;6.186;2022-08-19T00:47:04;11.27;;;8.43;;
52542;SDS011;38449;52.696;6.186;2022-08-19T00:56:52;9.15;;;7.65;;
52542;SDS011;38449;52.696;6.186;2022-08-19T00:59:18;10.40;;;7.88;;
52542;SDS011;38449;52.696;6.186;2022-08-19T01:01:45;9.63;;;8.05;;
52542;SDS011;38449;52.696;6.186;2022-08-19T01:04:11;10.48;;;7.82;;
52542;SDS011;38449;52.696;6.186;2022-08-19T01:13:59;9.45;;;8.02;;
52542;SDS011;38449;52.696;6.186;2022-08-19T01:16:25;10.95;;;8.40;;
52542;SDS011;38449;52.696;6.186;2022-08-19T01:18:52;10.05;;;8.00;;
52542;SDS011;38449;52.696;6.186;2022-08-19T01:21:26;9.38;;;8.10;;
52542;SDS011;38449;52.696;6.186;2022-08-19T01:23:57;10.25;;;8.23;;
52542;SDS011;38449;52.696;6.186;2022-08-19T01:26:24;9.98;;;8.55;;
52542;SDS011;38449;52.696;6.186;2022-08-19T01:28:51;8.70;;;7.40;;
52542;SDS011;38449;52.696;6.186;2022-08-19T01:31:21;10.32;;;8.25;;
52542;SDS011;38449;52.696;6.186;2022-08-19T01:34:10;11.38;;;9.07;;
52542;SDS011;38449;52.696;6.186;2022-08-19T01:36:41;10.55;;;8.73;;
52542;SDS011;38449;52.696;6.186;2022-08-19T01:39:13;13.98;;;8.75;;
52542;SDS011;38449;52.696;6.186;2022-08-19T01:41:41;13.45;;;9.35;;
52542;SDS011;38449;52.696;6.186;2022-08-19T01:44:07;10.50;;;9.40;;
52542;SDS011;38449;52.696;6.186;2022-08-19T01:46:34;12.85;;;9.63;;
52542;SDS011;38449;52.696;6.186;2022-08-19T01:49:01;11.50;;;8.85;;
52542;SDS011;38449;52.696;6.186;2022-08-19T01:51:28;11.65;;;9.25;;
52542;SDS011;38449;52.696;6.186;2022-08-19T01:53:55;13.43;;;9.95;;
52542;SDS011;38449;52.696;6.186;2022-08-19T02:14:46;14.48;;;10.65;;
52542;SDS011;38449;52.696;6.186;2022-08-19T02:17:11;11.98;;;10.45;;
52542;SDS011;38449;52.696;6.186;2022-08-19T02:19:37;14.15;;;10.52;;
52542;SDS011;38449;52.696;6.186;2022-08-19T02:22:03;13.18;;;10.68;;
52542;SDS011;38449;52.696;6.186;2022-08-19T02:24:29;12.20;;;10.90;;
52542;SDS011;38449;52.696;6.186;2022-08-19T02:26:54;12.10;;;10.82;;
52542;SDS011;38449;52.696;6.186;2022-08-19T02:36:38;12.75;;;10.45;;
52542;SDS011;38449;52.696;6.186;2022-08-19T02:39:04;12.10;;;10.82;;
52542;SDS011;38449;52.696;6.186;2022-08-19T02:41:30;13.43;;;11.75;;
52542;SDS011;38449;52.696;6.186;2022-08-19T02:43:58;12.82;;;11.13;;
52542;SDS011;38449;52.696;6.186;2022-08-19T02:46:27;13.43;;;11.57;;
52542;SDS011;38449;52.696;6.186;2022-08-19T02:48:56;12.52;;;11.32;;
52542;SDS011;38449;52.696;6.186;2022-08-19T02:51:32;12.75;;;11.05;;
52542;SDS011;38449;52.696;6.186;2022-08-19T02:53:59;12.60;;;10.93;;
52542;SDS011;38449;52.696;6.186;2022-08-19T02:56:26;13.45;;;11.77;;
52542;SDS011;38449;52.696;6.186;2022-08-19T02:58:53;14.05;;;11.90;;
52542;SDS011;38449;52.696;6.186;2022-08-19T03:01:21;13.13;;;11.80;;
52542;SDS011;38449;52.696;6.186;2022-08-19T03:03:52;15.68;;;12.73;;
52542;SDS011;38449;52.696;6.186;2022-08-19T03:06:18;13.35;;;11.95;;
52542;SDS011;38449;52.696;6.186;2022-08-19T03:08:46;14.43;;;11.98;;
52542;SDS011;38449;52.696;6.186;2022-08-19T03:11:17;15.02;;;12.95;;
52542;SDS011;38449;52.696;6.186;2022-08-19T03:13:44;15.15;;;11.50;;
52542;SDS011;38449;52.696;6.186;2022-08-19T03:16:11;12.60;;;11.30;;
52542;SDS011;38449;52.696;6.186;2022-08-19T03:18:37;16.58;;;12.75;;
52542;SDS011;38449;52.696;6.186;2022-08-19T03:21:04;13.73;;;12.23;;
52542;SDS011;38449;52.696;6.186;2022-08-19T03:23:30;13.32;;;11.75;;
52542;SDS011;38449;52.696;6.186;2022-08-19T03:25:56;13.65;;;12.18;;
52542;SDS011;38449;52.696;6.186;2022-08-19T03:28:22;14.85;;;12.95;;
52542;SDS011;38449;52.696;6.186;2022-08-19T03:30:54;13.02;;;11.73;;
52542;SDS011;38449;52.696;6.186;2022-08-19T03:33:22;13.70;;;12.30;;
52542;SDS011;38449;52.696;6.186;2022-08-19T03:36:06;13.98;;;12.50;;
52542;SDS011;38449;52.696;6.186;2022-08-19T03:38:36;17.02;;;13.18;;
52542;SDS011;38449;52.696;6.186;2022-08-19T03:41:04;16.08;;;12.50;;
52542;SDS011;38449;52.696;6.186;2022-08-19T03:43:33;17.67;;;13.27;;
52542;SDS011;38449;52.696;6.186;2022-08-19T03:46:04;13.73;;;12.27;;
52542;SDS011;38449;52.696;6.186;2022-08-19T03:48:32;15.57;;;12.20;;
52542;SDS011;38449;52.696;6.186;2022-08-19T03:50:58;14.20;;;12.30;;
52542;SDS011;38449;52.696;6.186;2022-08-19T03:53:25;17.88;;;12.48;;
52542;SDS011;38449;52.696;6.186;2022-08-19T03:55:55;18.20;;;13.40;;
52542;SDS011;38449;52.696;6.186;2022-08-19T03:58:22;15.95;;;12.38;;
52542;SDS011;38449;52.696;6.186;2022-08-19T04:04:29;14.30;;;11.77;;
52542;SDS011;38449;52.696;6.186;2022-08-19T04:06:55;15.93;;;12.98;;
52542;SDS011;38449;52.696;6.186;2022-08-19T04:09:21;15.40;;;12.52;;
52542;SDS011;38449;52.696;6.186;2022-08-19T04:11:50;15.50;;;13.00;;
52542;SDS011;38449;52.696;6.186;2022-08-19T04:14:20;15.82;;;12.90;;
52542;SDS011;38449;52.696;6.186;2022-08-19T04:16:48;14.88;;;12.48;;
52542;SDS011;38449;52.696;6.186;2022-08-19T04:19:15;16.58;;;13.15;;
52542;SDS011;38449;52.696;6.186;2022-08-19T04:21:43;15.45;;;13.63;;
52542;SDS011;38449;52.696;6.186;2022-08-19T04:24:13;17.45;;;13.48;;
52542;SDS011;38449;52.696;6.186;2022-08-19T04:26:39;15.15;;;12.75;;
52542;SDS011;38449;52.696;6.186;2022-08-19T04:29:07;16.70;;;12.93;;
52542;SDS011;38449;52.696;6.186;2022-08-19T04:31:38;17.27;;;13.43;;
52542;SDS011;38449;52.696;6.186;2022-08-19T04:34:06;16.00;;;13.18;;
52542;SDS011;38449;52.696;6.186;2022-08-19T04:36:35;14.80;;;13.05;;
52542;SDS011;38449;52.696;6.186;2022-08-19T04:39:05;18.30;;;13.85;;
52542;SDS011;38449;52.696;6.186;2022-08-19T04:41:32;16.73;;;13.15;;
52542;SDS011;38449;52.696;6.186;2022-08-19T04:44:16;16.10;;;12.98;;
52542;SDS011;38449;52.696;6.186;2022-08-19T04:46:43;16.10;;;12.65;;
52542;SDS011;38449;52.696;6.186;2022-08-19T04:49:09;15.70;;;12.65;;
52542;SDS011;38449;52.696;6.186;2022-08-19T04:51:36;14.70;;;12.68;;
52542;SDS011;38449;52.696;6.186;2022-08-19T04:54:04;14.52;;;12.70;;
52542;SDS011;38449;52.696;6.186;2022-08-19T04:56:30;14.95;;;13.23;;
52542;SDS011;38449;52.696;6.186;2022-08-19T04:58:56;16.17;;;13.18;;
52542;SDS011;38449;52.696;6.186;2022-08-19T05:01:23;16.13;;;13.60;;
52542;SDS011;38449;52.696;6.186;2022-08-19T05:03:51;17.08;;;13.80;;
52542;SDS011;38449;52.696;6.186;2022-08-19T05:06:18;17.88;;;14.40;;
52542;SDS011;38449;52.696;6.186;2022-08-19T05:08:46;15.95;;;12.85;;
52542;SDS011;38449;52.696;6.186;2022-08-19T05:11:16;16.02;;;11.85;;
52542;SDS011;38449;52.696;6.186;2022-08-19T05:13:45;16.23;;;14.00;;
52542;SDS011;38449;52.696;6.186;2022-08-19T05:16:13;16.83;;;13.05;;
52542;SDS011;38449;52.696;6.186;2022-08-19T05:18:40;14.70;;;13.13;;
52542;SDS011;38449;52.696;6.186;2022-08-19T05:24:09;15.07;;;12.98;;
52542;SDS011;38449;52.696;6.186;2022-08-19T05:26:35;15.85;;;13.50;;
52542;SDS011;38449;52.696;6.186;2022-08-19T05:29:02;18.17;;;13.32;;
52542;SDS011;38449;52.696;6.186;2022-08-19T05:31:29;15.38;;;12.98;;
52542;SDS011;38449;52.696;6.186;2022-08-19T05:33:55;15.55;;;13.85;;
52542;SDS011;38449;52.696;6.186;2022-08-19T05:36:24;16.65;;;13.68;;
52542;SDS011;38449;52.696;6.186;2022-08-19T05:38:53;16.48;;;13.77;;
52542;SDS011;38449;52.696;6.186;2022-08-19T05:41:22;15.43;;;13.63;;
52542;SDS011;38449;52.696;6.186;2022-08-19T05:43:54;15.40;;;12.93;;
52542;SDS011;38449;52.696;6.186;2022-08-19T05:46:25;15.02;;;13.13;;
52542;SDS011;38449;52.696;6.186;2022-08-19T05:48:51;14.82;;;13.23;;
52542;SDS011;38449;52.696;6.186;2022-08-19T05:51:17;16.00;;;13.07;;
52542;SDS011;38449;52.696;6.186;2022-08-19T05:53:44;15.50;;;13.60;;
52542;SDS011;38449;52.696;6.186;2022-08-19T05:56:14;17.92;;;13.57;;
52542;SDS011;38449;52.696;6.186;2022-08-19T05:58:41;16.25;;;12.82;;
52542;SDS011;38449;52.696;6.186;2022-08-19T06:01:10;15.32;;;12.35;;
52542;SDS011;38449;52.696;6.186;2022-08-19T06:03:39;15.25;;;13.57;;
52542;SDS011;38449;52.696;6.186;2022-08-19T06:06:06;16.30;;;12.38;;
52542;SDS011;38449;52.696;6.186;2022-08-19T06:08:34;14.95;;;13.27;;
52542;SDS011;38449;52.696;6.186;2022-08-19T06:16:15;15.10;;;13.40;;
52542;SDS011;38449;52.696;6.186;2022-08-19T06:18:52;16.02;;;14.27;;
52542;SDS011;38449;52.696;6.186;2022-08-19T06:21:19;15.23;;;13.63;;
52542;SDS011;38449;52.696;6.186;2022-08-19T06:23:46;16.02;;;13.88;;
52542;SDS011;38449;52.696;6.186;2022-08-19T06:26:12;15.60;;;14.00;;
52542;SDS011;38449;52.696;6.186;2022-08-19T06:28:40;16.23;;;13.95;;
52542;SDS011;38449;52.696;6.186;2022-08-19T06:31:12;14.05;;;12.57;;
52542;SDS011;38449;52.696;6.186;2022-08-19T06:33:43;16.17;;;12.45;;
52542;SDS011;38449;52.696;6.186;2022-08-19T06:36:26;15.85;;;13.73;;
52542;SDS011;38449;52.696;6.186;2022-08-19T06:38:54;15.48;;;13.02;;
52542;SDS011;38449;52.696;6.186;2022-08-19T06:41:22;13.80;;;12.25;;
52542;SDS011;38449;52.696;6.186;2022-08-19T06:43:49;14.50;;;13.10;;
52542;SDS011;38449;52.696;6.186;2022-08-19T06:46:16;15.40;;;13.60;;
52542;SDS011;38449;52.696;6.186;2022-08-19T06:48:43;14.27;;;12.50;;
52542;SDS011;38449;52.696;6.186;2022-08-19T06:51:09;15.70;;;12.38;;
52542;SDS011;38449;52.696;6.186;2022-08-19T06:53:35;14.45;;;12.93;;
52542;SDS011;38449;52.696;6.186;2022-08-19T06:56:01;14.98;;;12.40;;
52542;SDS011;38449;52.696;6.186;2022-08-19T06:58:28;14.27;;;12.77;;
52542;SDS011;38449;52.696;6.186;2022-08-19T07:01:01;14.57;;;13.07;;
52542;SDS011;38449;52.696;6.186;2022-08-19T07:03:32;14.77;;;12.75;;
52542;SDS011;38449;52.696;6.186;2022-08-19T07:06:03;14.18;;;12.68;;
52542;SDS011;38449;52.696;6.186;2022-08-19T07:08:35;15.00;;;12.63;;
52542;SDS011;38449;52.696;6.186;2022-08-19T07:11:02;14.23;;;12.73;;
52542;SDS011;38449;52.696;6.186;2022-08-19T07:13:32;14.35;;;12.43;;
52542;SDS011;38449;52.696;6.186;2022-08-19T07:16:08;13.75;;;12.35;;
52542;SDS011;38449;52.696;6.186;2022-08-19T07:18:36;14.43;;;12.45;;
52542;SDS011;38449;52.696;6.186;2022-08-19T07:21:06;14.90;;;13.32;;
52542;SDS011;38449;52.696;6.186;2022-08-19T07:23:40;14.00;;;12.60;;
52542;SDS011;38449;52.696;6.186;2022-08-19T07:26:11;13.85;;;12.35;;
52542;SDS011;38449;52.696;6.186;2022-08-19T07:28:42;14.60;;;13.18;;
52542;SDS011;38449;52.696;6.186;2022-08-19T07:31:13;16.25;;;13.65;;
52542;SDS011;38449;52.696;6.186;2022-08-19T07:33:43;14.75;;;13.25;;
52542;SDS011;38449;52.696;6.186;2022-08-19T07:36:09;15.48;;;13.10;;
52542;SDS011;38449;52.696;6.186;2022-08-19T07:38:37;14.90;;;13.27;;
52542;SDS011;38449;52.696;6.186;2022-08-19T07:41:04;16.20;;;13.93;;
52542;SDS011;38449;52.696;6.186;2022-08-19T07:43:30;16.50;;;14.38;;
52542;SDS011;38449;52.696;6.186;2022-08-19T07:45:56;17.33;;;14.75;;
52542;SDS011;38449;52.696;6.186;2022-08-19T07:48:26;16.92;;;14.50;;
52542;SDS011;38449;52.696;6.186;2022-08-19T07:51:01;18.90;;;15.10;;
52542;SDS011;38449;52.696;6.186;2022-08-19T07:53:30;16.33;;;14.60;;
52542;SDS011;38449;52.696;6.186;2022-08-19T07:55:58;16.98;;;15.23;;
52542;SDS011;38449;52.696;6.186;2022-08-19T07:58:29;17.77;;;15.70;;
52542;SDS011;38449;52.696;6.186;2022-08-19T08:00:56;17.73;;;15.90;;
52542;SDS011;38449;52.696;6.186;2022-08-19T08:03:22;18.85;;;16.65;;
52542;SDS011;38449;52.696;6.186;2022-08-19T08:06:08;19.73;;;17.70;;
52542;SDS011;38449;52.696;6.186;2022-08-19T08:09:04;21.13;;;18.38;;
52542;SDS011;38449;52.696;6.186;2022-08-19T08:11:40;21.75;;;18.88;;
52542;SDS011;38449;52.696;6.186;2022-08-19T08:14:13;20.13;;;18.13;;
52542;SDS011;38449;52.696;6.186;2022-08-19T08:16:40;21.65;;;19.35;;
52542;SDS011;38449;52.696;6.186;2022-08-19T08:19:07;20.38;;;18.25;;
52542;SDS011;38449;52.696;6.186;2022-08-19T08:21:33;20.15;;;18.05;;
52542;SDS011;38449;52.696;6.186;2022-08-19T08:23:59;19.38;;;16.67;;
52542;SDS011;38449;52.696;6.186;2022-08-19T08:26:25;19.77;;;17.27;;
52542;SDS011;38449;52.696;6.186;2022-08-19T08:28:52;19.55;;;17.55;;
52542;SDS011;38449;52.696;6.186;2022-08-19T08:31:18;19.92;;;17.83;;
52542;SDS011;38449;52.696;6.186;2022-08-19T08:33:44;21.85;;;18.42;;
52542;SDS011;38449;52.696;6.186;2022-08-19T08:36:10;20.45;;;18.05;;
52542;SDS011;38449;52.696;6.186;2022-08-19T08:38:39;19.63;;;17.52;;
52542;SDS011;38449;52.696;6.186;2022-08-19T08:41:13;21.30;;;17.65;;
52542;SDS011;38449;52.696;6.186;2022-08-19T08:43:48;20.35;;;16.98;;
52542;SDS011;38449;52.696;6.186;2022-08-19T08:46:36;18.95;;;15.82;;
52542;SDS011;38449;52.696;6.186;2022-08-19T08:51:44;20.92;;;17.48;;
52542;SDS011;38449;52.696;6.186;2022-08-19T08:54:15;17.85;;;16.05;;
52542;SDS011;38449;52.696;6.186;2022-08-19T08:56:45;20.83;;;16.77;;
52542;SDS011;38449;52.696;6.186;2022-08-19T08:59:21;18.58;;;16.00;;
52542;SDS011;38449;52.696;6.186;2022-08-19T09:01:49;19.65;;;17.15;;
52542;SDS011;38449;52.696;6.186;2022-08-19T09:04:15;18.48;;;15.82;;
52542;SDS011;38449;52.696;6.186;2022-08-19T09:09:34;20.80;;;15.88;;
52542;SDS011;38449;52.696;6.186;2022-08-19T09:12:32;20.33;;;16.58;;
52542;SDS011;38449;52.696;6.186;2022-08-19T09:15:12;17.95;;;15.82;;
52542;SDS011;38449;52.696;6.186;2022-08-19T09:17:39;18.27;;;16.17;;
52542;SDS011;38449;52.696;6.186;2022-08-19T09:25:15;17.42;;;14.15;;
52542;SDS011;38449;52.696;6.186;2022-08-19T09:27:43;15.77;;;13.48;;
52542;SDS011;38449;52.696;6.186;2022-08-19T09:30:15;16.13;;;14.00;;
52542;SDS011;38449;52.696;6.186;2022-08-19T09:32:43;18.40;;;14.93;;
52542;SDS011;38449;52.696;6.186;2022-08-19T09:35:10;16.98;;;14.90;;
52542;SDS011;38449;52.696;6.186;2022-08-19T09:37:38;20.17;;;14.57;;
52542;SDS011;38449;52.696;6.186;2022-08-19T09:40:04;14.50;;;13.02;;
52542;SDS011;38449;52.696;6.186;2022-08-19T09:42:31;16.35;;;13.20;;
52542;SDS011;38449;52.696;6.186;2022-08-19T09:44:58;16.90;;;14.38;;
52542;SDS011;38449;52.696;6.186;2022-08-19T09:47:24;20.83;;;17.48;;
52542;SDS011;38449;52.696;6.186;2022-08-19T09:49:50;18.27;;;15.68;;
52542;SDS011;38449;52.696;6.186;2022-08-19T09:52:15;16.98;;;14.65;;
52542;SDS011;38449;52.696;6.186;2022-08-19T09:54:43;20.30;;;16.13;;
52542;SDS011;38449;52.696;6.186;2022-08-19T09:57:08;20.02;;;16.65;;
52542;SDS011;38449;52.696;6.186;2022-08-19T09:59:34;18.58;;;16.63;;
52542;SDS011;38449;52.696;6.186;2022-08-19T10:02:00;19.05;;;17.13;;
52542;SDS011;38449;52.696;6.186;2022-08-19T10:04:26;19.13;;;16.98;;
52542;SDS011;38449;52.696;6.186;2022-08-19T10:07:11;21.30;;;18.90;;
52542;SDS011;38449;52.696;6.186;2022-08-19T10:09:37;24.92;;;20.05;;
52542;SDS011;38449;52.696;6.186;2022-08-19T10:12:05;20.38;;;18.30;;
52542;SDS011;38449;52.696;6.186;2022-08-19T10:14:30;19.02;;;17.13;;
52542;SDS011;38449;52.696;6.186;2022-08-19T10:16:56;19.67;;;17.67;;
52542;SDS011;38449;52.696;6.186;2022-08-19T10:19:22;18.67;;;16.83;;
52542;SDS011;38449;52.696;6.186;2022-08-19T10:21:48;19.92;;;17.83;;
52542;SDS011;38449;52.696;6.186;2022-08-19T10:24:13;23.58;;;19.00;;
52542;SDS011;38449;52.696;6.186;2022-08-19T10:26:39;23.33;;;19.70;;
52542;SDS011;38449;52.696;6.186;2022-08-19T10:29:12;26.42;;;19.67;;
52542;SDS011;38449;52.696;6.186;2022-08-19T10:31:40;23.55;;;19.45;;
52542;SDS011;38449;52.696;6.186;2022-08-19T10:34:07;19.88;;;17.23;;
52542;SDS011;38449;52.696;6.186;2022-08-19T10:36:35;19.92;;;16.38;;
52542;SDS011;38449;52.696;6.186;2022-08-19T10:39:06;21.15;;;16.52;;
52542;SDS011;38449;52.696;6.186;2022-08-19T10:41:35;20.45;;;15.68;;
52542;SDS011;38449;52.696;6.186;2022-08-19T10:44:06;17.95;;;15.07;;
52542;SDS011;38449;52.696;6.186;2022-08-19T10:46:35;18.13;;;16.10;;
52542;SDS011;38449;52.696;6.186;2022-08-19T10:49:03;17.27;;;15.38;;
52542;SDS011;38449;52.696;6.186;2022-08-19T10:51:31;19.42;;;16.30;;
52542;SDS011;38449;52.696;6.186;2022-08-19T10:54:16;22.67;;;18.17;;
52542;SDS011;38449;52.696;6.186;2022-08-19T10:56:42;21.02;;;18.48;;
52542;SDS011;38449;52.696;6.186;2022-08-19T10:59:18;15.63;;;14.05;;
52542;SDS011;38449;52.696;6.186;2022-08-19T11:01:46;19.27;;;15.52;;
52542;SDS011;38449;52.696;6.186;2022-08-19T11:04:13;19.00;;;16.73;;
52542;SDS011;38449;52.696;6.186;2022-08-19T11:06:41;21.67;;;18.38;;
52542;SDS011;38449;52.696;6.186;2022-08-19T11:09:08;20.52;;;18.33;;
52542;SDS011;38449;52.696;6.186;2022-08-19T11:11:35;24.48;;;21.35;;
52542;SDS011;38449;52.696;6.186;2022-08-19T11:14:09;23.65;;;21.15;;
52542;SDS011;38449;52.696;6.186;2022-08-19T11:16:37;21.27;;;19.05;;
52542;SDS011;38449;52.696;6.186;2022-08-19T11:19:04;25.27;;;20.48;;
52542;SDS011;38449;52.696;6.186;2022-08-19T11:21:31;22.88;;;20.48;;
52542;SDS011;38449;52.696;6.186;2022-08-19T11:24:00;24.23;;;18.25;;
52542;SDS011;38449;52.696;6.186;2022-08-19T11:26:29;21.15;;;15.85;;
52542;SDS011;38449;52.696;6.186;2022-08-19T11:28:56;21.13;;;17.15;;
52542;SDS011;38449;52.696;6.186;2022-08-19T11:31:23;16.75;;;15.05;;
52542;SDS011;38449;52.696;6.186;2022-08-19T11:33:52;19.92;;;17.67;;
52542;SDS011;38449;52.696;6.186;2022-08-19T11:36:19;22.38;;;19.02;;
52542;SDS011;38449;52.696;6.186;2022-08-19T11:38:46;22.75;;;20.38;;
52542;SDS011;38449;52.696;6.186;2022-08-19T11:41:13;25.40;;;20.73;;
52542;SDS011;38449;52.696;6.186;2022-08-19T11:43:40;22.88;;;18.95;;
52542;SDS011;38449;52.696;6.186;2022-08-19T11:46:07;21.38;;;18.00;;
52542;SDS011;38449;52.696;6.186;2022-08-19T11:48:35;19.02;;;17.00;;
52542;SDS011;38449;52.696;6.186;2022-08-19T11:51:08;23.58;;;20.02;;
52542;SDS011;38449;52.696;6.186;2022-08-19T11:53:36;19.70;;;17.33;;
52542;SDS011;38449;52.696;6.186;2022-08-19T11:56:02;22.35;;;18.80;;
52542;SDS011;38449;52.696;6.186;2022-08-19T11:58:29;27.40;;;20.50;;
52542;SDS011;38449;52.696;6.186;2022-08-19T12:00:55;20.17;;;16.70;;
52542;SDS011;38449;52.696;6.186;2022-08-19T12:03:21;21.55;;;16.85;;
52542;SDS011;38449;52.696;6.186;2022-08-19T12:05:47;23.77;;;18.42;;
52542;SDS011;38449;52.696;6.186;2022-08-19T12:08:15;23.20;;;18.20;;
52542;SDS011;38449;52.696;6.186;2022-08-19T12:10:41;22.80;;;17.63;;
52542;SDS011;38449;52.696;6.186;2022-08-19T12:13:08;21.55;;;18.35;;
52542;SDS011;38449;52.696;6.186;2022-08-19T12:15:38;19.27;;;16.27;;
52542;SDS011;38449;52.696;6.186;2022-08-19T12:18:06;15.00;;;13.32;;
52542;SDS011;38449;52.696;6.186;2022-08-19T12:20:36;20.48;;;17.15;;
52542;SDS011;38449;52.696;6.186;2022-08-19T12:23:03;19.85;;;16.15;;
52542;SDS011;38449;52.696;6.186;2022-08-19T12:25:29;21.55;;;16.25;;
52542;SDS011;38449;52.696;6.186;2022-08-19T12:27:57;19.45;;;16.40;;
52542;SDS011;38449;52.696;6.186;2022-08-19T12:30:23;15.07;;;13.30;;
52542;SDS011;38449;52.696;6.186;2022-08-19T12:32:49;21.38;;;16.58;;
52542;SDS011;38449;52.696;6.186;2022-08-19T12:35:16;20.10;;;15.85;;
52542;SDS011;38449;52.696;6.186;2022-08-19T12:37:45;18.75;;;15.38;;
52542;SDS011;38449;52.696;6.186;2022-08-19T12:40:11;20.90;;;16.38;;
52542;SDS011;38449;52.696;6.186;2022-08-19T12:42:38;19.52;;;16.52;;
52542;SDS011;38449;52.696;6.186;2022-08-19T12:45:07;17.50;;;15.10;;
52542;SDS011;38449;52.696;6.186;2022-08-19T12:47:34;17.02;;;14.55;;
52542;SDS011;38449;52.696;6.186;2022-08-19T12:50:00;17.85;;;14.77;;
52542;SDS011;38449;52.696;6.186;2022-08-19T12:52:26;20.23;;;15.68;;
52542;SDS011;38449;52.696;6.186;2022-08-19T12:54:53;19.20;;;15.75;;
52542;SDS011;38449;52.696;6.186;2022-08-19T12:57:20;21.75;;;16.85;;
52542;SDS011;38449;52.696;6.186;2022-08-19T12:59:48;17.25;;;14.90;;
52542;SDS011;38449;52.696;6.186;2022-08-19T13:02:18;18.17;;;14.80;;
52542;SDS011;38449;52.696;6.186;2022-08-19T13:04:44;21.17;;;16.75;;
52542;SDS011;38449;52.696;6.186;2022-08-19T13:07:10;20.73;;;16.38;;
52542;SDS011;38449;52.696;6.186;2022-08-19T13:09:36;20.30;;;14.15;;
52542;SDS011;38449;52.696;6.186;2022-08-19T13:12:02;21.38;;;15.68;;
52542;SDS011;38449;52.696;6.186;2022-08-19T13:14:32;17.13;;;15.32;;
52542;SDS011;38449;52.696;6.186;2022-08-19T13:16:58;20.63;;;18.35;;
52542;SDS011;38449;52.696;6.186;2022-08-19T13:19:24;20.08;;;17.10;;
52542;SDS011;38449;52.696;6.186;2022-08-19T13:21:50;20.50;;;16.50;;
52542;SDS011;38449;52.696;6.186;2022-08-19T13:24:16;18.60;;;14.75;;
52542;SDS011;38449;52.696;6.186;2022-08-19T13:26:43;23.63;;;19.15;;
52542;SDS011;38449;52.696;6.186;2022-08-19T13:29:08;20.10;;;16.52;;
52542;SDS011;38449;52.696;6.186;2022-08-19T13:31:52;20.00;;;17.08;;
52542;SDS011;38449;52.696;6.186;2022-08-19T13:34:37;22.83;;;18.80;;
52542;SDS011;38449;52.696;6.186;2022-08-19T13:37:03;22.05;;;19.70;;
52542;SDS011;38449;52.696;6.186;2022-08-19T13:39:30;20.88;;;17.90;;
52542;SDS011;38449;52.696;6.186;2022-08-19T13:41:57;22.67;;;16.90;;
52542;SDS011;38449;52.696;6.186;2022-08-19T13:44:25;20.65;;;18.33;;
52542;SDS011;38449;52.696;6.186;2022-08-19T13:46:51;24.92;;;19.40;;
52542;SDS011;38449;52.696;6.186;2022-08-19T13:49:18;20.83;;;16.80;;
52542;SDS011;38449;52.696;6.186;2022-08-19T13:51:45;19.10;;;14.38;;
52542;SDS011;38449;52.696;6.186;2022-08-19T13:54:11;15.55;;;13.13;;
52542;SDS011;38449;52.696;6.186;2022-08-19T13:56:41;19.70;;;13.98;;
52542;SDS011;38449;52.696;6.186;2022-08-19T13:59:09;21.63;;;14.80;;
52542;SDS011;38449;52.696;6.186;2022-08-19T14:01:35;19.08;;;15.75;;
52542;SDS011;38449;52.696;6.186;2022-08-19T14:04:02;20.90;;;16.35;;
52542;SDS011;38449;52.696;6.186;2022-08-19T14:06:28;17.52;;;11.98;;
52542;SDS011;38449;52.696;6.186;2022-08-19T14:08:53;13.90;;;11.10;;
52542;SDS011;38449;52.696;6.186;2022-08-19T14:11:19;15.65;;;11.18;;
52542;SDS011;38449;52.696;6.186;2022-08-19T14:13:45;14.13;;;9.40;;
52542;SDS011;38449;52.696;6.186;2022-08-19T14:16:11;14.45;;;11.88;;
52542;SDS011;38449;52.696;6.186;2022-08-19T14:18:39;17.00;;;12.23;;
52542;SDS011;38449;52.696;6.186;2022-08-19T14:21:05;17.23;;;13.35;;
52542;SDS011;38449;52.696;6.186;2022-08-19T14:23:31;17.95;;;15.15;;
52542;SDS011;38449;52.696;6.186;2022-08-19T14:26:08;19.23;;;14.75;;
52542;SDS011;38449;52.696;6.186;2022-08-19T14:28:36;18.00;;;15.20;;
52542;SDS011;38449;52.696;6.186;2022-08-19T14:31:04;21.00;;;14.77;;
52542;SDS011;38449;52.696;6.186;2022-08-19T14:33:30;21.15;;;14.63;;
52542;SDS011;38449;52.696;6.186;2022-08-19T14:35:57;21.80;;;14.40;;
52542;SDS011;38449;52.696;6.186;2022-08-19T14:38:22;17.88;;;14.27;;
52542;SDS011;38449;52.696;6.186;2022-08-19T14:40:48;18.48;;;14.27;;
52542;SDS011;38449;52.696;6.186;2022-08-19T14:43:14;19.50;;;13.40;;
52542;SDS011;38449;52.696;6.186;2022-08-19T14:45:40;21.92;;;13.63;;
52542;SDS011;38449;52.696;6.186;2022-08-19T14:48:06;18.52;;;14.52;;
52542;SDS011;38449;52.696;6.186;2022-08-19T14:50:33;17.30;;;11.98;;
52542;SDS011;38449;52.696;6.186;2022-08-19T14:53:00;17.98;;;11.55;;
52542;SDS011;38449;52.696;6.186;2022-08-19T14:55:28;16.27;;;12.63;;
52542;SDS011;38449;52.696;6.186;2022-08-19T14:57:55;14.70;;;12.00;;
52542;SDS011;38449;52.696;6.186;2022-08-19T15:00:20;16.75;;;11.43;;
52542;SDS011;38449;52.696;6.186;2022-08-19T15:02:48;16.05;;;10.60;;
52542;SDS011;38449;52.696;6.186;2022-08-19T15:05:14;12.57;;;9.23;;
52542;SDS011;38449;52.696;6.186;2022-08-19T15:07:40;8.20;;;5.25;;
52542;SDS011;38449;52.696;6.186;2022-08-19T15:10:07;10.38;;;5.85;;
52542;SDS011;38449;52.696;6.186;2022-08-19T15:12:36;8.07;;;5.57;;
52542;SDS011;38449;52.696;6.186;2022-08-19T15:15:05;6.70;;;4.68;;
52542;SDS011;38449;52.696;6.186;2022-08-19T15:17:37;9.80;;;4.75;;
52542;SDS011;38449;52.696;6.186;2022-08-19T15:20:05;9.10;;;4.60;;
52542;SDS011;38449;52.696;6.186;2022-08-19T15:22:32;7.35;;;4.35;;
52542;SDS011;38449;52.696;6.186;2022-08-19T15:24:58;9.00;;;4.90;;
52542;SDS011;38449;52.696;6.186;2022-08-19T15:27:23;8.93;;;4.88;;
52542;SDS011;38449;52.696;6.186;2022-08-19T15:29:49;7.00;;;4.50;;
52542;SDS011;38449;52.696;6.186;2022-08-19T15:32:15;8.05;;;4.68;;